createdAt,value
2018-05-06T00:01:56.264Z,61.47
2018-05-06T00:04:23.759Z,61.38
2018-05-06T00:06:51.290Z,61.33
2018-05-06T00:09:18.776Z,61.39
2018-05-06T00:11:46.231Z,61.21
2018-05-06T00:14:13.722Z,61.21
2018-05-06T00:16:41.210Z,61.10
2018-05-06T00:19:08.655Z,60.98
2018-05-06T00:21:36.140Z,60.91
2018-05-06T00:24:03.684Z,61.08
2018-05-06T00:26:31.280Z,60.90
2018-05-06T00:28:58.755Z,60.98
2018-05-06T00:31:26.295Z,61.06
2018-05-06T00:33:53.782Z,60.93
2018-05-06T00:36:21.268Z,60.94
2018-05-06T00:38:48.768Z,60.88
2018-05-06T00:41:16.280Z,61.07
2018-05-06T00:43:43.940Z,61.10
2018-05-06T00:46:11.441Z,61.25
2018-05-06T00:48:38.967Z,61.18
2018-05-06T00:51:06.540Z,61.30
2018-05-06T00:53:34.039Z,61.37
2018-05-06T00:56:01.638Z,61.54
2018-05-06T00:58:29.119Z,61.53
2018-05-06T01:00:56.629Z,61.56
2018-05-06T01:03:24.122Z,61.48
2018-05-06T01:05:51.579Z,61.47
2018-05-06T01:08:19.075Z,61.46
2018-05-06T01:10:46.580Z,61.55
2018-05-06T01:13:14.146Z,61.60
2018-05-06T01:15:41.636Z,61.57
2018-05-06T01:18:09.204Z,61.57
2018-05-06T01:20:36.688Z,61.44
2018-05-06T01:23:04.144Z,61.69
2018-05-06T01:25:31.646Z,61.64
2018-05-06T01:27:59.100Z,61.66
2018-05-06T01:30:26.611Z,61.44
2018-05-06T01:32:54.092Z,61.54
2018-05-06T01:35:21.559Z,61.57
2018-05-06T01:37:49.041Z,61.54
2018-05-06T01:40:16.553Z,61.64
2018-05-06T01:42:44.012Z,61.56
2018-05-06T01:45:11.456Z,61.81
2018-05-06T01:47:38.941Z,61.83
2018-05-06T01:50:06.415Z,61.91
2018-05-06T01:52:33.900Z,62.02
2018-05-06T01:55:01.419Z,62.02
2018-05-06T01:57:28.885Z,62.11
2018-05-06T01:59:57.212Z,62.19
2018-05-06T02:02:24.704Z,62.22
2018-05-06T02:04:52.200Z,62.33
2018-05-06T02:07:19.652Z,62.39
2018-05-06T02:09:47.322Z,62.59
2018-05-06T02:12:14.840Z,62.65
2018-05-06T02:14:42.341Z,62.67
2018-05-06T02:17:09.830Z,62.76
2018-05-06T02:19:37.285Z,62.75
2018-05-06T02:22:04.806Z,62.95
2018-05-06T02:24:32.326Z,63.12
2018-05-06T02:27:00.753Z,63.22
2018-05-06T02:29:28.239Z,63.38
2018-05-06T02:31:55.693Z,63.52
2018-05-06T02:34:23.155Z,63.55
2018-05-06T02:36:50.617Z,63.64
2018-05-06T02:39:18.069Z,63.63
2018-05-06T02:41:45.567Z,63.87
2018-05-06T02:44:13.079Z,63.85
2018-05-06T02:46:40.531Z,63.76
2018-05-06T02:49:08.011Z,63.99
2018-05-06T02:51:35.629Z,64.36
2018-05-06T02:54:03.087Z,64.57
2018-05-06T02:56:30.604Z,64.83
2018-05-06T02:58:58.170Z,65.01
2018-05-06T03:01:25.619Z,65.25
2018-05-06T03:03:53.096Z,65.29
2018-05-06T03:06:20.637Z,65.53
2018-05-06T03:08:48.114Z,65.54
2018-05-06T03:11:15.692Z,65.79
2018-05-06T03:13:43.249Z,66.04
2018-05-06T03:16:10.708Z,66.14
2018-05-06T03:18:38.194Z,66.34
2018-05-06T03:21:05.694Z,66.36
2018-05-06T03:23:33.169Z,66.35
2018-05-06T03:26:00.658Z,66.37
2018-05-06T03:28:28.149Z,66.60
2018-05-06T03:30:55.659Z,66.75
2018-05-06T03:33:23.160Z,66.75
2018-05-06T03:35:50.635Z,66.84
2018-05-06T03:38:18.089Z,66.94
2018-05-06T03:40:45.599Z,67.00
2018-05-06T03:43:13.063Z,67.14
2018-05-06T03:45:40.523Z,67.22
2018-05-06T03:48:07.980Z,67.17
2018-05-06T03:50:35.488Z,67.16
2018-05-06T03:53:02.935Z,67.19
2018-05-06T03:55:30.524Z,67.05
2018-05-06T03:58:09.811Z,66.96
2018-05-06T04:00:42.154Z,67.12
2018-05-06T04:03:09.681Z,67.06
2018-05-06T04:05:37.177Z,66.80
2018-05-06T04:08:04.665Z,65.85
2018-05-06T04:10:32.151Z,65.50
2018-05-06T04:12:59.597Z,65.62
2018-05-06T04:15:27.111Z,65.41
2018-05-06T04:17:54.641Z,64.93
2018-05-06T04:20:22.088Z,65.11
2018-05-06T04:22:49.532Z,65.37
2018-05-06T04:25:17.043Z,65.29
2018-05-06T04:27:44.534Z,64.68
2018-05-06T04:30:12.018Z,64.28
2018-05-06T04:32:39.517Z,63.89
2018-05-06T04:35:07.003Z,64.49
2018-05-06T04:37:34.489Z,64.61
2018-05-06T04:40:02.057Z,64.73
2018-05-06T04:42:29.522Z,63.17
2018-05-06T04:44:57.007Z,57.00
2018-05-06T04:47:24.510Z,52.33
2018-05-06T04:49:52.165Z,48.91
2018-05-06T04:52:19.652Z,47.25
2018-05-06T04:54:47.229Z,45.28
2018-05-06T04:57:14.745Z,45.49
2018-05-06T04:59:42.240Z,47.90
2018-05-06T05:02:09.760Z,47.57
2018-05-06T05:04:37.268Z,49.87
2018-05-06T05:07:04.746Z,53.42
2018-05-06T05:09:32.288Z,55.84
2018-05-06T05:11:59.772Z,57.73
2018-05-06T05:14:27.347Z,58.96
2018-05-06T05:16:54.799Z,59.38
2018-05-06T05:19:22.245Z,59.85
2018-05-06T05:21:49.745Z,60.58
2018-05-06T05:24:17.207Z,60.97
2018-05-06T05:26:44.690Z,61.16
2018-05-06T05:29:12.141Z,60.97
2018-05-06T05:31:39.648Z,60.76
2018-05-06T05:34:07.183Z,60.80
2018-05-06T05:36:34.649Z,60.97
2018-05-06T05:39:02.170Z,61.61
2018-05-06T05:41:29.642Z,61.88
2018-05-06T05:43:57.128Z,61.75
2018-05-06T05:46:24.650Z,61.51
2018-05-06T05:48:52.120Z,60.83
2018-05-06T05:51:19.611Z,61.14
2018-05-06T05:53:47.071Z,61.25
2018-05-06T05:56:14.524Z,60.87
2018-05-06T05:58:42.019Z,60.90
2018-05-06T06:01:09.511Z,60.40
2018-05-06T06:03:36.981Z,60.30
2018-05-06T06:06:04.465Z,60.15
2018-05-06T06:08:31.934Z,60.55
2018-05-06T06:10:59.384Z,59.48
2018-05-06T06:13:26.867Z,59.87
2018-05-06T06:15:54.354Z,59.74
2018-05-06T06:18:21.847Z,59.24
2018-05-06T06:20:49.336Z,58.70
2018-05-06T06:23:16.865Z,57.89
2018-05-06T06:25:44.346Z,57.19
2018-05-06T06:28:11.858Z,56.21
2018-05-06T06:30:39.351Z,56.02
2018-05-06T06:33:06.923Z,55.78
2018-05-06T06:35:34.505Z,54.77
2018-05-06T06:38:01.971Z,54.58
2018-05-06T06:40:29.611Z,54.64
2018-05-06T06:42:57.113Z,54.18
2018-05-06T06:45:24.634Z,53.52
2018-05-06T06:47:52.161Z,52.91
2018-05-06T06:50:19.639Z,52.84
2018-05-06T06:52:47.153Z,52.40
2018-05-06T06:55:14.665Z,52.17
2018-05-06T06:57:42.145Z,51.96
2018-05-06T07:00:09.632Z,51.25
2018-05-06T07:02:37.180Z,51.56
2018-05-06T07:05:04.666Z,51.12
2018-05-06T07:07:32.228Z,49.82
2018-05-06T07:09:59.736Z,50.17
2018-05-06T07:12:27.192Z,50.50
2018-05-06T07:14:54.717Z,50.58
2018-05-06T07:17:22.169Z,50.56
2018-05-06T07:19:49.654Z,49.81
2018-05-06T07:22:17.137Z,49.18
2018-05-06T07:24:44.626Z,48.61
2018-05-06T07:27:12.132Z,49.08
2018-05-06T07:29:39.665Z,48.71
2018-05-06T07:32:07.187Z,48.88
2018-05-06T07:34:34.691Z,48.93
2018-05-06T07:37:02.225Z,47.12
2018-05-06T07:39:29.688Z,46.65
2018-05-06T07:41:57.259Z,46.12
2018-05-06T07:44:24.795Z,45.79
2018-05-06T07:46:52.275Z,45.46
2018-05-06T07:49:19.813Z,45.34
2018-05-06T07:51:47.283Z,45.43
2018-05-06T07:54:14.807Z,45.75
2018-05-06T07:56:42.382Z,45.71
2018-05-06T07:59:09.862Z,45.54
2018-05-06T08:01:37.321Z,45.96
2018-05-06T08:04:04.849Z,46.04
2018-05-06T08:06:32.419Z,46.67
2018-05-06T08:08:59.915Z,47.15
2018-05-06T08:11:27.397Z,47.45
2018-05-06T08:13:54.886Z,47.34
2018-05-06T08:16:22.438Z,47.34
2018-05-06T08:18:49.948Z,47.16
2018-05-06T08:21:17.485Z,46.45
2018-05-06T08:23:44.942Z,45.87
2018-05-06T08:26:12.504Z,45.48
2018-05-06T08:28:39.982Z,45.48
2018-05-06T08:31:07.486Z,45.25
2018-05-06T08:33:34.991Z,43.84
2018-05-06T08:36:02.500Z,43.87
2018-05-06T08:38:30.018Z,43.84
2018-05-06T08:40:57.556Z,43.23
2018-05-06T08:43:25.060Z,42.59
2018-05-06T08:45:52.629Z,42.81
2018-05-06T08:48:20.552Z,42.75
2018-05-06T08:50:48.036Z,43.02
2018-05-06T08:53:15.531Z,43.18
2018-05-06T08:55:43.040Z,42.33
2018-05-06T08:58:10.490Z,41.84
2018-05-06T09:00:38.050Z,42.71
2018-05-06T09:03:05.590Z,41.91
2018-05-06T09:05:33.100Z,41.89
2018-05-06T09:08:00.591Z,41.26
2018-05-06T09:10:28.047Z,40.78
2018-05-06T09:12:55.556Z,41.27
2018-05-06T09:15:23.013Z,41.60
2018-05-06T09:17:50.472Z,41.82
2018-05-06T09:20:18.017Z,41.73
2018-05-06T09:22:45.499Z,42.00
2018-05-06T09:25:13.028Z,42.33
2018-05-06T09:27:40.481Z,42.42
2018-05-06T09:30:08.005Z,41.34
2018-05-06T09:32:35.570Z,41.87
2018-05-06T09:35:03.054Z,42.16
2018-05-06T09:37:30.528Z,40.87
2018-05-06T09:39:58.032Z,40.72
2018-05-06T09:42:25.807Z,40.29
2018-05-06T09:44:53.251Z,40.84
2018-05-06T09:47:20.718Z,40.89
2018-05-06T09:49:48.193Z,40.94
2018-05-06T09:52:15.695Z,40.56
2018-05-06T09:54:43.199Z,40.66
2018-05-06T09:57:10.763Z,40.68
2018-05-06T09:59:38.274Z,40.74
2018-05-06T10:02:05.880Z,40.91
2018-05-06T10:04:33.385Z,40.29
2018-05-06T10:07:00.905Z,39.57
2018-05-06T10:09:28.413Z,40.00
2018-05-06T10:11:55.900Z,40.75
2018-05-06T10:14:23.371Z,40.88
2018-05-06T10:16:50.869Z,40.39
2018-05-06T10:19:18.401Z,40.54
2018-05-06T10:21:45.880Z,40.35
2018-05-06T10:24:13.354Z,40.52
2018-05-06T10:26:40.842Z,40.03
2018-05-06T10:29:08.346Z,39.23
2018-05-06T10:31:35.887Z,38.88
2018-05-06T10:34:03.388Z,38.28
2018-05-06T10:36:30.883Z,38.37
2018-05-06T10:38:58.396Z,38.52
2018-05-06T10:41:25.910Z,38.23
2018-05-06T10:43:53.401Z,39.29
2018-05-06T10:46:20.890Z,39.59
2018-05-06T10:48:48.410Z,39.21
2018-05-06T10:51:15.892Z,38.87
2018-05-06T10:53:43.373Z,39.43
2018-05-06T10:56:10.903Z,39.28
2018-05-06T10:58:38.384Z,39.76
2018-05-06T11:01:05.857Z,39.87
2018-05-06T11:03:33.438Z,39.68
2018-05-06T11:06:00.891Z,39.88
2018-05-06T11:08:28.369Z,39.44
2018-05-06T11:10:55.855Z,38.91
2018-05-06T11:13:23.298Z,39.37
2018-05-06T11:15:50.782Z,39.51
2018-05-06T11:18:18.303Z,39.25
2018-05-06T11:20:45.786Z,39.49
2018-05-06T11:23:13.254Z,39.07
2018-05-06T11:25:40.709Z,39.05
2018-05-06T11:28:08.316Z,39.14
2018-05-06T11:30:35.769Z,39.35
2018-05-06T11:33:03.300Z,39.99
2018-05-06T11:35:30.893Z,40.11
2018-05-06T11:37:58.370Z,39.86
2018-05-06T11:40:25.861Z,39.55
2018-05-06T11:42:53.441Z,39.95
2018-05-06T11:45:21.057Z,39.67
2018-05-06T11:47:48.590Z,39.79
2018-05-06T11:50:16.073Z,40.23
2018-05-06T11:52:43.630Z,39.98
2018-05-06T11:55:11.175Z,39.77
2018-05-06T11:57:38.743Z,40.01
2018-05-06T12:00:06.245Z,39.67
2018-05-06T12:02:33.824Z,39.97
2018-05-06T12:05:01.283Z,39.69
2018-05-06T12:07:28.856Z,40.40
2018-05-06T12:09:56.404Z,40.28
2018-05-06T12:12:23.842Z,39.96
2018-05-06T12:14:51.337Z,39.58
2018-05-06T12:17:18.842Z,40.01
2018-05-06T12:19:46.323Z,40.07
2018-05-06T12:22:13.828Z,39.44
2018-05-06T12:24:41.345Z,39.88
2018-05-06T12:27:08.815Z,40.10
2018-05-06T12:29:36.280Z,39.78
2018-05-06T12:32:03.764Z,40.36
2018-05-06T12:34:31.235Z,40.67
2018-05-06T12:36:58.726Z,39.64
2018-05-06T12:39:26.243Z,39.13
2018-05-06T12:41:53.778Z,39.51
2018-05-06T12:44:21.303Z,39.19
2018-05-06T12:46:48.788Z,39.57
2018-05-06T12:49:16.354Z,39.44
2018-05-06T12:51:43.831Z,39.18
2018-05-06T12:54:11.279Z,39.02
2018-05-06T12:56:38.768Z,39.76
2018-05-06T12:59:06.257Z,39.76
2018-05-06T13:01:33.724Z,39.44
2018-05-06T13:04:01.216Z,39.24
2018-05-06T13:06:28.681Z,38.93
2018-05-06T13:08:56.154Z,39.05
2018-05-06T13:11:23.685Z,39.37
2018-05-06T13:13:51.240Z,39.35
2018-05-06T13:16:18.725Z,39.52
2018-05-06T13:18:46.203Z,39.22
2018-05-06T13:21:13.702Z,39.64
2018-05-06T13:23:41.254Z,39.32
2018-05-06T13:26:08.720Z,39.36
2018-05-06T13:28:36.207Z,38.76
2018-05-06T13:31:03.729Z,39.28
2018-05-06T13:33:31.216Z,39.63
2018-05-06T13:35:58.717Z,39.64
2018-05-06T13:38:26.168Z,39.45
2018-05-06T13:40:53.675Z,40.06
2018-05-06T13:43:21.179Z,39.54
2018-05-06T13:45:48.639Z,39.60
2018-05-06T13:48:16.111Z,39.51
2018-05-06T13:50:43.592Z,39.82
2018-05-06T13:53:11.095Z,39.57
2018-05-06T13:55:38.561Z,39.58
2018-05-06T13:58:06.088Z,39.52
2018-05-06T14:00:33.601Z,39.64
2018-05-06T14:03:01.192Z,39.93
2018-05-06T14:05:28.746Z,39.72
2018-05-06T14:07:56.240Z,39.67
2018-05-06T14:10:23.717Z,39.54
2018-05-06T14:12:51.191Z,39.32
2018-05-06T14:15:18.692Z,39.35
2018-05-06T14:17:46.251Z,39.44
2018-05-06T14:20:13.754Z,39.00
2018-05-06T14:22:41.241Z,39.04
2018-05-06T14:25:08.721Z,39.16
2018-05-06T14:27:36.293Z,38.99
2018-05-06T14:30:03.892Z,38.98
2018-05-06T14:32:31.268Z,38.62
2018-05-06T14:34:58.758Z,37.24
2018-05-06T14:37:26.249Z,37.34
2018-05-06T14:39:53.700Z,37.76
2018-05-06T14:42:21.205Z,37.19
2018-05-06T14:44:48.682Z,36.38
2018-05-06T14:50:22.241Z,35.70
2018-05-06T14:52:49.728Z,36.39
2018-05-06T14:55:17.175Z,36.65
2018-05-06T14:57:44.667Z,36.37
2018-05-06T15:00:12.156Z,35.93
2018-05-06T15:02:39.659Z,35.58
2018-05-06T15:05:07.157Z,35.89
2018-05-06T15:07:34.620Z,35.14
2018-05-06T15:10:02.115Z,34.71
2018-05-06T15:12:29.564Z,32.51
2018-05-06T15:14:57.061Z,30.27
2018-05-06T15:17:24.612Z,28.12
2018-05-06T15:19:52.159Z,27.18
2018-05-06T15:22:19.620Z,26.27
2018-05-06T15:24:47.118Z,25.69
2018-05-06T15:27:14.658Z,24.63
2018-05-06T15:29:42.127Z,24.04
2018-05-06T15:32:09.643Z,23.88
2018-05-06T15:34:37.122Z,23.59
2018-05-06T15:37:04.611Z,23.32
2018-05-06T15:39:32.091Z,23.72
2018-05-06T15:41:59.629Z,24.15
2018-05-06T15:44:27.110Z,24.21
2018-05-06T15:46:54.741Z,25.03
2018-05-06T15:49:22.264Z,25.57
2018-05-06T15:51:49.750Z,27.01
2018-05-06T15:54:17.233Z,27.53
2018-05-06T15:56:44.721Z,26.74
2018-05-06T15:59:12.287Z,26.50
2018-05-06T16:01:41.560Z,26.77
2018-05-06T16:04:17.531Z,27.55
2018-05-06T16:06:45.005Z,27.42
2018-05-06T16:09:12.448Z,27.52
2018-05-06T16:11:39.940Z,28.41
2018-05-06T16:14:07.442Z,27.07
2018-05-06T16:16:34.899Z,27.14
2018-05-06T16:19:02.392Z,27.21
2018-05-06T16:21:29.884Z,28.05
2018-05-06T16:23:57.388Z,29.89
2018-05-06T16:26:24.900Z,31.12
2018-05-06T16:28:52.380Z,32.69
2018-05-06T16:31:19.876Z,34.34
2018-05-06T16:33:47.431Z,35.38
2018-05-06T16:36:14.900Z,36.06
2018-05-06T16:38:42.401Z,35.99
2018-05-06T16:41:09.955Z,35.74
2018-05-06T16:43:37.467Z,36.28
2018-05-06T16:46:04.957Z,36.32
2018-05-06T16:48:32.511Z,36.96
2018-05-06T16:50:59.965Z,37.56
2018-05-06T16:53:27.408Z,38.23
2018-05-06T16:55:54.924Z,38.05
2018-05-06T16:58:22.391Z,38.14
2018-05-06T17:00:49.868Z,38.33
2018-05-06T17:03:17.379Z,38.71
2018-05-06T17:05:45.088Z,39.47
2018-05-06T17:08:12.592Z,39.91
2018-05-06T17:10:40.106Z,39.98
2018-05-06T17:13:07.587Z,40.25
2018-05-06T17:15:35.096Z,40.41
2018-05-06T17:18:02.610Z,40.55
2018-05-06T17:20:30.061Z,40.56
2018-05-06T17:22:57.544Z,40.58
2018-05-06T17:25:25.079Z,40.69
2018-05-06T17:27:52.567Z,40.82
2018-05-06T17:30:20.019Z,41.12
2018-05-06T17:32:47.540Z,41.50
2018-05-06T17:35:15.031Z,41.72
2018-05-06T17:37:42.512Z,41.92
2018-05-06T17:40:10.003Z,41.84
2018-05-06T17:42:37.489Z,42.07
2018-05-06T17:45:05.053Z,42.14
2018-05-06T17:47:32.563Z,42.40
2018-05-06T17:50:00.114Z,42.49
2018-05-06T17:52:27.516Z,42.49
2018-05-06T17:54:55.040Z,42.57
2018-05-06T17:57:22.514Z,42.81
2018-05-06T17:59:50.008Z,43.09
2018-05-06T18:02:17.523Z,43.34
2018-05-06T18:04:45.009Z,43.61
2018-05-06T18:07:12.479Z,43.85
2018-05-06T18:09:40.017Z,44.12
2018-05-06T18:12:07.498Z,44.38
2018-05-06T18:14:34.989Z,44.71
2018-05-06T18:17:02.467Z,44.93
2018-05-06T18:19:29.966Z,45.15
2018-05-06T18:21:57.507Z,45.37
2018-05-06T18:24:25.047Z,45.50
2018-05-06T18:26:52.504Z,45.64
2018-05-06T18:29:19.966Z,45.97
2018-05-06T18:31:47.467Z,46.22
2018-05-06T18:34:14.975Z,46.45
2018-05-06T18:36:42.439Z,46.48
2018-05-06T18:41:43.819Z,46.96
2018-05-06T18:44:11.369Z,47.06
2018-05-06T18:46:38.958Z,47.46
2018-05-06T18:49:06.497Z,47.65
2018-05-06T18:51:34.100Z,47.86
2018-05-06T18:54:01.612Z,48.32
2018-05-06T18:56:29.075Z,48.06
2018-05-06T18:58:56.608Z,48.15
2018-05-06T19:01:24.105Z,48.24
2018-05-06T19:03:51.598Z,48.42
2018-05-06T19:06:19.105Z,48.37
2018-05-06T19:08:46.565Z,48.72
2018-05-06T19:11:14.100Z,48.86
2018-05-06T19:13:41.668Z,48.98
2018-05-06T19:16:09.171Z,49.39
2018-05-06T19:18:36.683Z,49.40
2018-05-06T19:21:04.200Z,49.56
2018-05-06T19:23:31.707Z,49.74
2018-05-06T19:25:59.198Z,49.90
2018-05-06T19:28:26.786Z,49.97
2018-05-06T19:30:54.268Z,50.41
2018-05-06T19:33:21.716Z,50.49
2018-05-06T19:35:49.572Z,50.53
2018-05-06T19:38:17.097Z,50.80
2018-05-06T19:40:44.551Z,50.86
2018-05-06T19:43:12.036Z,51.21
2018-05-06T19:45:39.559Z,51.27
2018-05-06T19:48:07.075Z,51.51
2018-05-06T19:50:34.670Z,51.63
2018-05-06T19:53:02.162Z,51.89
2018-05-06T19:55:29.674Z,51.95
2018-05-06T19:57:57.203Z,51.86
2018-05-06T20:00:24.690Z,52.19
2018-05-06T20:02:52.185Z,52.22
2018-05-06T20:05:19.717Z,52.46
2018-05-06T20:07:47.172Z,52.74
2018-05-06T20:10:14.811Z,53.00
2018-05-06T20:12:42.722Z,52.99
2018-05-06T20:15:10.272Z,53.27
2018-05-06T20:17:37.840Z,53.46
2018-05-06T20:20:06.205Z,53.63
2018-05-06T20:22:33.704Z,53.73
2018-05-06T20:25:01.344Z,53.79
2018-05-06T20:27:28.796Z,54.01
2018-05-06T20:29:56.261Z,54.09
2018-05-06T20:32:23.811Z,54.13
2018-05-06T20:34:51.480Z,54.42
2018-05-06T20:37:18.996Z,54.60
2018-05-06T20:39:46.526Z,54.58
2018-05-06T20:42:14.021Z,55.06
2018-05-06T20:44:41.487Z,55.21
2018-05-06T20:47:09.573Z,55.24
2018-05-06T20:49:37.022Z,55.54
2018-05-06T20:52:04.445Z,55.69
2018-05-06T20:54:31.917Z,55.85
2018-05-06T20:56:59.348Z,55.89
2018-05-06T20:59:26.818Z,56.03
2018-05-06T21:01:54.345Z,56.02
2018-05-06T21:04:21.797Z,56.15
2018-05-06T21:06:49.218Z,56.19
2018-05-06T21:09:16.998Z,56.21
2018-05-06T21:11:44.454Z,56.39
2018-05-06T21:14:11.889Z,56.51
2018-05-06T21:16:39.457Z,56.68
2018-05-06T21:19:06.971Z,56.79
2018-05-06T21:21:34.424Z,57.04
2018-05-06T21:24:01.846Z,57.21
2018-05-06T21:26:29.289Z,57.45
2018-05-06T21:28:56.803Z,57.35
2018-05-06T21:31:24.311Z,57.64
2018-05-06T21:33:51.739Z,57.46
2018-05-06T21:36:19.343Z,57.55
2018-05-06T21:38:46.750Z,57.80
2018-05-06T21:41:14.203Z,58.24
2018-05-06T21:43:41.626Z,58.04
2018-05-06T21:46:09.058Z,57.82
2018-05-06T21:48:36.500Z,57.86
2018-05-06T21:51:03.954Z,57.87
2018-05-06T21:53:31.386Z,57.90
2018-05-06T21:55:58.838Z,57.90
2018-05-06T21:58:26.247Z,57.87
2018-05-06T22:00:53.706Z,57.91
2018-05-06T22:03:21.194Z,58.01
2018-05-06T22:05:48.609Z,58.12
2018-05-06T22:08:16.039Z,58.19
2018-05-06T22:10:43.506Z,58.20
2018-05-06T22:13:10.992Z,58.57
2018-05-06T22:15:38.447Z,58.53
2018-05-06T22:18:05.868Z,58.22
2018-05-06T22:20:33.319Z,58.21
2018-05-06T22:23:00.745Z,58.50
2018-05-06T22:25:28.195Z,58.57
2018-05-06T22:27:55.692Z,58.87
2018-05-06T22:30:23.162Z,59.36
2018-05-06T22:32:50.616Z,59.68
2018-05-06T22:35:18.135Z,60.11
2018-05-06T22:37:45.550Z,60.06
2018-05-06T22:40:13.013Z,60.10
2018-05-06T22:42:40.476Z,60.30
2018-05-06T22:45:07.925Z,60.40
2018-05-06T22:47:35.380Z,60.74
2018-05-06T22:50:02.856Z,61.10
2018-05-06T22:52:30.307Z,61.08
2018-05-06T22:54:57.756Z,61.27
2018-05-06T22:57:25.190Z,61.21
2018-05-06T22:59:52.645Z,61.10
2018-05-06T23:02:20.077Z,61.49
2018-05-06T23:04:47.497Z,61.99
2018-05-06T23:07:14.932Z,62.72
2018-05-06T23:09:42.346Z,63.23
2018-05-06T23:12:09.786Z,63.48
2018-05-06T23:14:37.202Z,63.69
2018-05-06T23:17:04.619Z,63.79
2018-05-06T23:19:32.157Z,64.13
2018-05-06T23:21:59.605Z,64.50
2018-05-06T23:24:27.052Z,64.56
2018-05-06T23:26:54.503Z,64.77
2018-05-06T23:29:22.000Z,64.93
2018-05-06T23:31:49.412Z,65.08
2018-05-06T23:34:16.858Z,65.18
2018-05-06T23:36:44.311Z,65.23
2018-05-06T23:39:11.775Z,65.40
2018-05-06T23:41:39.194Z,65.47
2018-05-06T23:44:06.660Z,65.62
2018-05-06T23:46:34.152Z,65.72
2018-05-06T23:49:01.597Z,65.96
2018-05-06T23:51:29.039Z,66.26
2018-05-06T23:53:56.524Z,66.45
2018-05-06T23:56:23.996Z,66.60
2018-05-06T23:58:51.403Z,66.81
